sensor_id;sensor_type;location;lat;lon;timestamp;P1;durP1;ratioP1;P2;durP2;ratioP2
72437;SDS011;60444;43.534;-5.674;2022-12-07T00:01:43;15.23;;;7.50;;
72437;SDS011;60444;43.534;-5.674;2022-12-07T00:04:10;11.45;;;5.82;;
72437;SDS011;60444;43.534;-5.674;2022-12-07T00:06:39;11.40;;;5.93;;
72437;SDS011;60444;43.534;-5.674;2022-12-07T00:09:07;11.83;;;5.93;;
72437;SDS011;60444;43.534;-5.674;2022-12-07T00:11:36;12.25;;;6.30;;
72437;SDS011;60444;43.534;-5.674;2022-12-07T00:14:02;13.73;;;6.93;;
72437;SDS011;60444;43.534;-5.674;2022-12-07T00:16:31;13.55;;;7.03;;
72437;SDS011;60444;43.534;-5.674;2022-12-07T00:18:58;13.50;;;6.07;;
72437;SDS011;60444;43.534;-5.674;2022-12-07T00:21:25;14.07;;;5.80;;
72437;SDS011;60444;43.534;-5.674;2022-12-07T00:23:58;11.90;;;5.55;;
72437;SDS011;60444;43.534;-5.674;2022-12-07T00:26:25;10.73;;;5.30;;
72437;SDS011;60444;43.534;-5.674;2022-12-07T00:29:03;12.75;;;6.15;;
72437;SDS011;60444;43.534;-5.674;2022-12-07T00:31:36;12.27;;;5.70;;
72437;SDS011;60444;43.534;-5.674;2022-12-07T00:34:04;13.02;;;5.55;;
72437;SDS011;60444;43.534;-5.674;2022-12-07T00:36:31;11.55;;;5.28;;
72437;SDS011;60444;43.534;-5.674;2022-12-07T00:38:57;12.40;;;5.87;;
72437;SDS011;60444;43.534;-5.674;2022-12-07T00:41:24;12.48;;;5.68;;
72437;SDS011;60444;43.534;-5.674;2022-12-07T00:43:51;10.73;;;5.38;;
72437;SDS011;60444;43.534;-5.674;2022-12-07T00:46:17;12.40;;;5.20;;
72437;SDS011;60444;43.534;-5.674;2022-12-07T00:48:44;11.40;;;5.83;;
72437;SDS011;60444;43.534;-5.674;2022-12-07T00:51:10;11.07;;;5.43;;
72437;SDS011;60444;43.534;-5.674;2022-12-07T00:53:36;10.82;;;5.28;;
72437;SDS011;60444;43.534;-5.674;2022-12-07T00:56:06;12.20;;;5.30;;
72437;SDS011;60444;43.534;-5.674;2022-12-07T00:58:33;11.33;;;5.50;;
72437;SDS011;60444;43.534;-5.674;2022-12-07T01:01:02;13.65;;;6.00;;
72437;SDS011;60444;43.534;-5.674;2022-12-07T01:03:29;13.13;;;6.00;;
72437;SDS011;60444;43.534;-5.674;2022-12-07T01:05:55;12.38;;;6.50;;
72437;SDS011;60444;43.534;-5.674;2022-12-07T01:08:22;13.23;;;5.80;;
72437;SDS011;60444;43.534;-5.674;2022-12-07T01:10:49;12.32;;;6.35;;
72437;SDS011;60444;43.534;-5.674;2022-12-07T01:13:22;12.47;;;6.00;;
72437;SDS011;60444;43.534;-5.674;2022-12-07T01:15:47;11.50;;;5.95;;
72437;SDS011;60444;43.534;-5.674;2022-12-07T01:18:13;11.33;;;6.13;;
72437;SDS011;60444;43.534;-5.674;2022-12-07T01:20:38;13.57;;;6.43;;
72437;SDS011;60444;43.534;-5.674;2022-12-07T01:23:04;13.93;;;6.30;;
72437;SDS011;60444;43.534;-5.674;2022-12-07T01:25:30;14.10;;;6.50;;
72437;SDS011;60444;43.534;-5.674;2022-12-07T01:27:55;13.23;;;6.15;;
72437;SDS011;60444;43.534;-5.674;2022-12-07T01:30:21;11.13;;;5.50;;
72437;SDS011;60444;43.534;-5.674;2022-12-07T01:32:46;13.63;;;6.37;;
72437;SDS011;60444;43.534;-5.674;2022-12-07T01:35:12;11.43;;;5.73;;
72437;SDS011;60444;43.534;-5.674;2022-12-07T01:37:37;11.77;;;6.50;;
72437;SDS011;60444;43.534;-5.674;2022-12-07T01:40:04;11.40;;;6.18;;
72437;SDS011;60444;43.534;-5.674;2022-12-07T01:42:31;13.30;;;6.13;;
72437;SDS011;60444;43.534;-5.674;2022-12-07T01:48:00;13.98;;;6.10;;
72437;SDS011;60444;43.534;-5.674;2022-12-07T01:50:26;10.93;;;5.72;;
72437;SDS011;60444;43.534;-5.674;2022-12-07T01:52:56;11.10;;;5.30;;
72437;SDS011;60444;43.534;-5.674;2022-12-07T01:55:26;10.70;;;5.38;;
72437;SDS011;60444;43.534;-5.674;2022-12-07T01:57:52;10.55;;;5.30;;
72437;SDS011;60444;43.534;-5.674;2022-12-07T02:00:19;11.45;;;5.22;;
72437;SDS011;60444;43.534;-5.674;2022-12-07T02:02:49;9.93;;;4.70;;
72437;SDS011;60444;43.534;-5.674;2022-12-07T02:05:19;10.80;;;5.28;;
72437;SDS011;60444;43.534;-5.674;2022-12-07T02:07:45;10.27;;;4.97;;
72437;SDS011;60444;43.534;-5.674;2022-12-07T02:10:16;9.48;;;4.90;;
72437;SDS011;60444;43.534;-5.674;2022-12-07T02:12:46;11.23;;;5.20;;
72437;SDS011;60444;43.534;-5.674;2022-12-07T02:15:15;11.45;;;5.18;;
72437;SDS011;60444;43.534;-5.674;2022-12-07T02:31:18;10.90;;;4.97;;
72437;SDS011;60444;43.534;-5.674;2022-12-07T02:33:54;11.52;;;5.63;;
72437;SDS011;60444;43.534;-5.674;2022-12-07T02:36:30;11.77;;;5.15;;
72437;SDS011;60444;43.534;-5.674;2022-12-07T02:39:25;11.50;;;5.13;;
72437;SDS011;60444;43.534;-5.674;2022-12-07T02:42:19;10.10;;;4.87;;
72437;SDS011;60444;43.534;-5.674;2022-12-07T02:44:50;11.38;;;5.30;;
72437;SDS011;60444;43.534;-5.674;2022-12-07T02:47:17;12.27;;;6.63;;
72437;SDS011;60444;43.534;-5.674;2022-12-07T02:49:46;11.25;;;5.18;;
72437;SDS011;60444;43.534;-5.674;2022-12-07T02:52:12;10.02;;;5.10;;
72437;SDS011;60444;43.534;-5.674;2022-12-07T02:54:38;10.07;;;5.63;;
72437;SDS011;60444;43.534;-5.674;2022-12-07T02:57:07;10.30;;;5.20;;
72437;SDS011;60444;43.534;-5.674;2022-12-07T03:15:45;11.43;;;5.55;;
72437;SDS011;60444;43.534;-5.674;2022-12-07T03:18:18;12.30;;;5.43;;
72437;SDS011;60444;43.534;-5.674;2022-12-07T03:20:46;10.35;;;5.22;;
72437;SDS011;60444;43.534;-5.674;2022-12-07T03:23:17;10.30;;;4.90;;
72437;SDS011;60444;43.534;-5.674;2022-12-07T03:25:49;9.88;;;5.22;;
72437;SDS011;60444;43.534;-5.674;2022-12-07T03:28:20;10.85;;;5.32;;
72437;SDS011;60444;43.534;-5.674;2022-12-07T03:30:51;11.05;;;5.25;;
72437;SDS011;60444;43.534;-5.674;2022-12-07T03:33:31;11.07;;;5.05;;
72437;SDS011;60444;43.534;-5.674;2022-12-07T03:36:03;12.00;;;6.20;;
72437;SDS011;60444;43.534;-5.674;2022-12-07T03:38:48;11.68;;;5.13;;
72437;SDS011;60444;43.534;-5.674;2022-12-07T03:41:35;10.95;;;5.63;;
72437;SDS011;60444;43.534;-5.674;2022-12-07T03:44:02;10.80;;;5.05;;
72437;SDS011;60444;43.534;-5.674;2022-12-07T03:49:24;11.70;;;5.70;;
72437;SDS011;60444;43.534;-5.674;2022-12-07T03:54:33;10.63;;;5.68;;
72437;SDS011;60444;43.534;-5.674;2022-12-07T03:57:04;11.05;;;6.00;;
72437;SDS011;60444;43.534;-5.674;2022-12-07T03:59:31;11.70;;;5.65;;
72437;SDS011;60444;43.534;-5.674;2022-12-07T04:02:01;11.93;;;6.10;;
72437;SDS011;60444;43.534;-5.674;2022-12-07T04:04:28;11.75;;;5.45;;
72437;SDS011;60444;43.534;-5.674;2022-12-07T04:06:54;11.80;;;6.23;;
72437;SDS011;60444;43.534;-5.674;2022-12-07T04:09:19;11.70;;;5.80;;
72437;SDS011;60444;43.534;-5.674;2022-12-07T04:11:45;10.60;;;5.23;;
72437;SDS011;60444;43.534;-5.674;2022-12-07T04:14:14;10.70;;;5.88;;
72437;SDS011;60444;43.534;-5.674;2022-12-07T04:16:47;10.52;;;5.45;;
72437;SDS011;60444;43.534;-5.674;2022-12-07T04:19:18;9.40;;;5.10;;
72437;SDS011;60444;43.534;-5.674;2022-12-07T04:21:45;11.43;;;5.87;;
72437;SDS011;60444;43.534;-5.674;2022-12-07T04:24:12;10.73;;;5.60;;
72437;SDS011;60444;43.534;-5.674;2022-12-07T04:26:39;11.32;;;6.32;;
72437;SDS011;60444;43.534;-5.674;2022-12-07T04:29:06;11.45;;;5.55;;
72437;SDS011;60444;43.534;-5.674;2022-12-07T04:31:32;10.88;;;5.40;;
72437;SDS011;60444;43.534;-5.674;2022-12-07T04:33:57;11.73;;;5.50;;
72437;SDS011;60444;43.534;-5.674;2022-12-07T04:36:23;10.30;;;5.57;;
72437;SDS011;60444;43.534;-5.674;2022-12-07T04:38:49;11.32;;;6.13;;
72437;SDS011;60444;43.534;-5.674;2022-12-07T04:41:14;12.43;;;5.30;;
72437;SDS011;60444;43.534;-5.674;2022-12-07T04:43:40;9.67;;;5.07;;
72437;SDS011;60444;43.534;-5.674;2022-12-07T04:46:05;10.30;;;5.40;;
72437;SDS011;60444;43.534;-5.674;2022-12-07T04:48:31;11.27;;;5.87;;
72437;SDS011;60444;43.534;-5.674;2022-12-07T04:50:56;12.07;;;5.67;;
72437;SDS011;60444;43.534;-5.674;2022-12-07T04:53:22;12.00;;;6.03;;
72437;SDS011;60444;43.534;-5.674;2022-12-07T04:55:48;9.73;;;5.27;;
72437;SDS011;60444;43.534;-5.674;2022-12-07T04:58:16;11.07;;;5.43;;
72437;SDS011;60444;43.534;-5.674;2022-12-07T05:00:42;9.77;;;5.00;;
72437;SDS011;60444;43.534;-5.674;2022-12-07T05:03:07;10.82;;;5.47;;
72437;SDS011;60444;43.534;-5.674;2022-12-07T05:05:33;9.93;;;5.23;;
72437;SDS011;60444;43.534;-5.674;2022-12-07T05:07:58;12.67;;;5.57;;
72437;SDS011;60444;43.534;-5.674;2022-12-07T05:10:24;10.00;;;4.90;;
72437;SDS011;60444;43.534;-5.674;2022-12-07T05:12:49;10.68;;;4.95;;
72437;SDS011;60444;43.534;-5.674;2022-12-07T05:15:15;9.37;;;4.70;;
72437;SDS011;60444;43.534;-5.674;2022-12-07T05:17:44;11.63;;;5.13;;
72437;SDS011;60444;43.534;-5.674;2022-12-07T05:20:09;10.33;;;5.30;;
72437;SDS011;60444;43.534;-5.674;2022-12-07T05:22:35;10.27;;;5.35;;
72437;SDS011;60444;43.534;-5.674;2022-12-07T05:25:00;10.53;;;5.47;;
72437;SDS011;60444;43.534;-5.674;2022-12-07T05:27:29;10.68;;;5.20;;
72437;SDS011;60444;43.534;-5.674;2022-12-07T05:29:54;11.27;;;5.60;;
72437;SDS011;60444;43.534;-5.674;2022-12-07T05:32:20;9.40;;;4.77;;
72437;SDS011;60444;43.534;-5.674;2022-12-07T05:34:45;10.18;;;4.70;;
72437;SDS011;60444;43.534;-5.674;2022-12-07T05:37:11;12.03;;;5.03;;
72437;SDS011;60444;43.534;-5.674;2022-12-07T05:39:36;11.03;;;5.43;;
72437;SDS011;60444;43.534;-5.674;2022-12-07T05:42:05;11.00;;;5.43;;
72437;SDS011;60444;43.534;-5.674;2022-12-07T05:44:42;10.13;;;5.45;;
72437;SDS011;60444;43.534;-5.674;2022-12-07T05:47:10;11.93;;;5.97;;
72437;SDS011;60444;43.534;-5.674;2022-12-07T05:49:36;9.65;;;5.30;;
72437;SDS011;60444;43.534;-5.674;2022-12-07T05:52:02;9.87;;;4.53;;
72437;SDS011;60444;43.534;-5.674;2022-12-07T05:54:28;10.95;;;5.18;;
72437;SDS011;60444;43.534;-5.674;2022-12-07T05:56:54;10.87;;;4.93;;
72437;SDS011;60444;43.534;-5.674;2022-12-07T05:59:19;9.90;;;5.20;;
72437;SDS011;60444;43.534;-5.674;2022-12-07T06:04:43;11.03;;;5.23;;
72437;SDS011;60444;43.534;-5.674;2022-12-07T06:07:11;11.93;;;5.30;;
72437;SDS011;60444;43.534;-5.674;2022-12-07T06:09:38;11.43;;;5.78;;
72437;SDS011;60444;43.534;-5.674;2022-12-07T06:12:04;9.65;;;4.90;;
72437;SDS011;60444;43.534;-5.674;2022-12-07T06:14:49;10.53;;;5.20;;
72437;SDS011;60444;43.534;-5.674;2022-12-07T06:17:15;11.00;;;5.03;;
72437;SDS011;60444;43.534;-5.674;2022-12-07T06:19:41;10.70;;;5.25;;
72437;SDS011;60444;43.534;-5.674;2022-12-07T06:22:07;9.23;;;5.00;;
72437;SDS011;60444;43.534;-5.674;2022-12-07T06:24:34;10.13;;;5.38;;
72437;SDS011;60444;43.534;-5.674;2022-12-07T06:27:00;10.13;;;5.20;;
72437;SDS011;60444;43.534;-5.674;2022-12-07T06:29:25;11.63;;;5.93;;
72437;SDS011;60444;43.534;-5.674;2022-12-07T06:31:51;10.15;;;5.70;;
72437;SDS011;60444;43.534;-5.674;2022-12-07T06:34:18;11.50;;;5.53;;
72437;SDS011;60444;43.534;-5.674;2022-12-07T06:36:45;11.73;;;5.72;;
72437;SDS011;60444;43.534;-5.674;2022-12-07T06:39:16;10.57;;;5.97;;
72437;SDS011;60444;43.534;-5.674;2022-12-07T06:41:45;11.43;;;5.83;;
72437;SDS011;60444;43.534;-5.674;2022-12-07T06:44:11;9.80;;;5.20;;
72437;SDS011;60444;43.534;-5.674;2022-12-07T06:46:36;12.17;;;5.50;;
72437;SDS011;60444;43.534;-5.674;2022-12-07T06:49:02;10.90;;;4.90;;
72437;SDS011;60444;43.534;-5.674;2022-12-07T06:51:29;10.57;;;5.07;;
72437;SDS011;60444;43.534;-5.674;2022-12-07T06:53:55;11.20;;;5.53;;
72437;SDS011;60444;43.534;-5.674;2022-12-07T06:56:20;9.60;;;4.90;;
72437;SDS011;60444;43.534;-5.674;2022-12-07T06:58:46;10.52;;;4.97;;
72437;SDS011;60444;43.534;-5.674;2022-12-07T07:01:12;9.43;;;5.10;;
72437;SDS011;60444;43.534;-5.674;2022-12-07T07:03:39;9.55;;;4.72;;
72437;SDS011;60444;43.534;-5.674;2022-12-07T07:06:05;9.10;;;5.00;;
72437;SDS011;60444;43.534;-5.674;2022-12-07T07:08:32;9.60;;;4.40;;
72437;SDS011;60444;43.534;-5.674;2022-12-07T07:10:58;9.48;;;4.53;;
72437;SDS011;60444;43.534;-5.674;2022-12-07T07:13:23;9.53;;;4.87;;
72437;SDS011;60444;43.534;-5.674;2022-12-07T07:15:49;9.32;;;4.40;;
72437;SDS011;60444;43.534;-5.674;2022-12-07T07:18:14;9.63;;;4.90;;
72437;SDS011;60444;43.534;-5.674;2022-12-07T07:20:40;8.93;;;4.67;;
72437;SDS011;60444;43.534;-5.674;2022-12-07T07:23:05;9.67;;;4.90;;
72437;SDS011;60444;43.534;-5.674;2022-12-07T07:25:32;10.43;;;4.60;;
72437;SDS011;60444;43.534;-5.674;2022-12-07T07:27:58;10.15;;;5.03;;
72437;SDS011;60444;43.534;-5.674;2022-12-07T07:30:24;10.27;;;4.68;;
72437;SDS011;60444;43.534;-5.674;2022-12-07T07:32:50;12.98;;;5.43;;
72437;SDS011;60444;43.534;-5.674;2022-12-07T07:35:17;10.07;;;5.33;;
72437;SDS011;60444;43.534;-5.674;2022-12-07T07:37:42;11.55;;;5.10;;
72437;SDS011;60444;43.534;-5.674;2022-12-07T07:40:09;10.53;;;5.33;;
72437;SDS011;60444;43.534;-5.674;2022-12-07T07:42:35;10.35;;;4.88;;
72437;SDS011;60444;43.534;-5.674;2022-12-07T07:45:01;13.37;;;5.30;;
72437;SDS011;60444;43.534;-5.674;2022-12-07T07:47:26;10.77;;;4.67;;
72437;SDS011;60444;43.534;-5.674;2022-12-07T07:49:54;11.43;;;5.40;;
72437;SDS011;60444;43.534;-5.674;2022-12-07T07:52:19;11.77;;;6.10;;
72437;SDS011;60444;43.534;-5.674;2022-12-07T07:54:44;10.57;;;4.10;;
72437;SDS011;60444;43.534;-5.674;2022-12-07T07:57:10;12.40;;;5.25;;
72437;SDS011;60444;43.534;-5.674;2022-12-07T07:59:36;15.37;;;6.03;;
72437;SDS011;60444;43.534;-5.674;2022-12-07T08:02:02;13.18;;;5.53;;
72437;SDS011;60444;43.534;-5.674;2022-12-07T08:04:27;14.10;;;6.17;;
72437;SDS011;60444;43.534;-5.674;2022-12-07T08:06:53;15.02;;;5.53;;
72437;SDS011;60444;43.534;-5.674;2022-12-07T08:09:18;10.93;;;5.70;;
72437;SDS011;60444;43.534;-5.674;2022-12-07T08:11:44;13.87;;;5.80;;
72437;SDS011;60444;43.534;-5.674;2022-12-07T08:14:10;15.35;;;5.82;;
72437;SDS011;60444;43.534;-5.674;2022-12-07T08:16:37;14.38;;;5.40;;
72437;SDS011;60444;43.534;-5.674;2022-12-07T08:19:04;16.47;;;5.43;;
72437;SDS011;60444;43.534;-5.674;2022-12-07T08:21:29;13.25;;;5.75;;
72437;SDS011;60444;43.534;-5.674;2022-12-07T08:23:56;16.42;;;5.80;;
72437;SDS011;60444;43.534;-5.674;2022-12-07T08:26:22;13.87;;;5.83;;
72437;SDS011;60444;43.534;-5.674;2022-12-07T08:28:48;13.43;;;5.13;;
72437;SDS011;60444;43.534;-5.674;2022-12-07T08:31:15;13.67;;;5.40;;
72437;SDS011;60444;43.534;-5.674;2022-12-07T08:33:44;13.98;;;5.40;;
72437;SDS011;60444;43.534;-5.674;2022-12-07T08:36:11;13.65;;;5.18;;
72437;SDS011;60444;43.534;-5.674;2022-12-07T08:38:38;15.03;;;5.70;;
72437;SDS011;60444;43.534;-5.674;2022-12-07T08:41:05;14.40;;;5.20;;
72437;SDS011;60444;43.534;-5.674;2022-12-07T08:43:31;14.52;;;5.15;;
72437;SDS011;60444;43.534;-5.674;2022-12-07T08:48:53;15.95;;;5.22;;
72437;SDS011;60444;43.534;-5.674;2022-12-07T08:51:22;12.97;;;5.60;;
72437;SDS011;60444;43.534;-5.674;2022-12-07T08:53:49;11.68;;;4.60;;
72437;SDS011;60444;43.534;-5.674;2022-12-07T08:56:16;13.75;;;5.60;;
72437;SDS011;60444;43.534;-5.674;2022-12-07T08:58:41;12.88;;;5.53;;
72437;SDS011;60444;43.534;-5.674;2022-12-07T09:01:07;15.53;;;5.30;;
72437;SDS011;60444;43.534;-5.674;2022-12-07T09:03:33;14.50;;;5.05;;
72437;SDS011;60444;43.534;-5.674;2022-12-07T09:05:59;17.65;;;5.75;;
72437;SDS011;60444;43.534;-5.674;2022-12-07T09:08:26;14.17;;;5.63;;
72437;SDS011;60444;43.534;-5.674;2022-12-07T09:10:56;13.70;;;5.20;;
72437;SDS011;60444;43.534;-5.674;2022-12-07T09:13:22;14.03;;;5.90;;
72437;SDS011;60444;43.534;-5.674;2022-12-07T09:15:47;16.58;;;5.72;;
72437;SDS011;60444;43.534;-5.674;2022-12-07T09:18:13;12.23;;;4.77;;
72437;SDS011;60444;43.534;-5.674;2022-12-07T09:20:38;14.97;;;5.30;;
72437;SDS011;60444;43.534;-5.674;2022-12-07T09:23:05;12.07;;;5.05;;
72437;SDS011;60444;43.534;-5.674;2022-12-07T09:25:32;13.43;;;5.00;;
72437;SDS011;60444;43.534;-5.674;2022-12-07T09:27:58;12.73;;;5.25;;
72437;SDS011;60444;43.534;-5.674;2022-12-07T09:30:24;12.20;;;4.40;;
72437;SDS011;60444;43.534;-5.674;2022-12-07T09:32:52;12.50;;;4.80;;
72437;SDS011;60444;43.534;-5.674;2022-12-07T09:35:19;11.52;;;5.00;;
72437;SDS011;60444;43.534;-5.674;2022-12-07T09:37:44;15.43;;;5.23;;
72437;SDS011;60444;43.534;-5.674;2022-12-07T09:40:10;13.65;;;6.00;;
72437;SDS011;60444;43.534;-5.674;2022-12-07T09:42:37;12.65;;;5.03;;
72437;SDS011;60444;43.534;-5.674;2022-12-07T09:45:42;14.00;;;5.57;;
72437;SDS011;60444;43.534;-5.674;2022-12-07T09:48:02;9.73;;;4.70;;
72437;SDS011;60444;43.534;-5.674;2022-12-07T09:50:29;10.45;;;4.00;;
72437;SDS011;60444;43.534;-5.674;2022-12-07T09:53:01;12.52;;;4.72;;
72437;SDS011;60444;43.534;-5.674;2022-12-07T09:55:42;11.15;;;4.20;;
72437;SDS011;60444;43.534;-5.674;2022-12-07T09:58:12;10.40;;;4.73;;
72437;SDS011;60444;43.534;-5.674;2022-12-07T10:00:45;11.93;;;4.80;;
72437;SDS011;60444;43.534;-5.674;2022-12-07T10:03:11;10.83;;;4.93;;
72437;SDS011;60444;43.534;-5.674;2022-12-07T10:05:41;9.32;;;4.22;;
72437;SDS011;60444;43.534;-5.674;2022-12-07T10:08:11;9.85;;;4.97;;
72437;SDS011;60444;43.534;-5.674;2022-12-07T10:10:38;11.30;;;4.95;;
72437;SDS011;60444;43.534;-5.674;2022-12-07T10:21:13;12.68;;;4.97;;
72437;SDS011;60444;43.534;-5.674;2022-12-07T10:26:39;11.07;;;4.75;;
72437;SDS011;60444;43.534;-5.674;2022-12-07T10:32:02;11.38;;;4.95;;
72437;SDS011;60444;43.534;-5.674;2022-12-07T10:34:40;10.27;;;4.70;;
72437;SDS011;60444;43.534;-5.674;2022-12-07T10:37:13;11.85;;;5.07;;
72437;SDS011;60444;43.534;-5.674;2022-12-07T10:42:24;11.37;;;5.00;;
72437;SDS011;60444;43.534;-5.674;2022-12-07T10:55:23;11.63;;;5.00;;
72437;SDS011;60444;43.534;-5.674;2022-12-07T11:11:53;13.63;;;6.07;;
72437;SDS011;60444;43.534;-5.674;2022-12-07T11:14:37;11.40;;;5.82;;
72437;SDS011;60444;43.534;-5.674;2022-12-07T11:17:20;16.52;;;7.57;;
72437;SDS011;60444;43.534;-5.674;2022-12-07T11:20:01;12.52;;;6.43;;
72437;SDS011;60444;43.534;-5.674;2022-12-07T11:27:42;10.50;;;4.30;;
72437;SDS011;60444;43.534;-5.674;2022-12-07T11:30:14;10.40;;;4.97;;
72437;SDS011;60444;43.534;-5.674;2022-12-07T11:35:44;10.90;;;5.50;;
72437;SDS011;60444;43.534;-5.674;2022-12-07T11:38:23;10.07;;;4.78;;
72437;SDS011;60444;43.534;-5.674;2022-12-07T11:40:56;8.67;;;3.90;;
72437;SDS011;60444;43.534;-5.674;2022-12-07T11:43:53;15.45;;;7.35;;
72437;SDS011;60444;43.534;-5.674;2022-12-07T11:49:40;16.42;;;6.00;;
72437;SDS011;60444;43.534;-5.674;2022-12-07T11:52:21;13.20;;;5.13;;
72437;SDS011;60444;43.534;-5.674;2022-12-07T11:54:52;13.00;;;5.77;;
72437;SDS011;60444;43.534;-5.674;2022-12-07T11:57:31;12.27;;;5.50;;
72437;SDS011;60444;43.534;-5.674;2022-12-07T12:00:04;14.15;;;5.93;;
72437;SDS011;60444;43.534;-5.674;2022-12-07T12:02:39;11.57;;;4.78;;
72437;SDS011;60444;43.534;-5.674;2022-12-07T12:05:15;10.05;;;3.60;;
72437;SDS011;60444;43.534;-5.674;2022-12-07T12:07:46;9.07;;;3.50;;
72437;SDS011;60444;43.534;-5.674;2022-12-07T12:10:21;9.40;;;3.50;;
72437;SDS011;60444;43.534;-5.674;2022-12-07T12:18:41;12.38;;;5.90;;
72437;SDS011;60444;43.534;-5.674;2022-12-07T12:21:30;15.97;;;6.03;;
72437;SDS011;60444;43.534;-5.674;2022-12-07T12:24:00;13.85;;;6.45;;
72437;SDS011;60444;43.534;-5.674;2022-12-07T12:26:35;15.25;;;6.88;;
72437;SDS011;60444;43.534;-5.674;2022-12-07T12:29:03;14.15;;;7.07;;
72437;SDS011;60444;43.534;-5.674;2022-12-07T12:31:32;13.80;;;6.70;;
72437;SDS011;60444;43.534;-5.674;2022-12-07T12:34:01;14.07;;;6.27;;
72437;SDS011;60444;43.534;-5.674;2022-12-07T12:51:53;8.18;;;3.22;;
72437;SDS011;60444;43.534;-5.674;2022-12-07T13:10:37;9.73;;;3.25;;
72437;SDS011;60444;43.534;-5.674;2022-12-07T13:13:28;9.23;;;3.43;;
72437;SDS011;60444;43.534;-5.674;2022-12-07T13:16:35;10.40;;;3.42;;
72437;SDS011;60444;43.534;-5.674;2022-12-07T13:18:40;7.82;;;3.60;;
72437;SDS011;60444;43.534;-5.674;2022-12-07T13:23:38;8.30;;;3.90;;
72437;SDS011;60444;43.534;-5.674;2022-12-07T13:28:46;12.20;;;3.70;;
72437;SDS011;60444;43.534;-5.674;2022-12-07T13:31:22;9.07;;;3.55;;
72437;SDS011;60444;43.534;-5.674;2022-12-07T13:33:58;12.85;;;3.78;;
72437;SDS011;60444;43.534;-5.674;2022-12-07T13:36:27;12.18;;;4.22;;
72437;SDS011;60444;43.534;-5.674;2022-12-07T13:39:01;9.47;;;3.40;;
72437;SDS011;60444;43.534;-5.674;2022-12-07T13:41:57;12.55;;;3.38;;
72437;SDS011;60444;43.534;-5.674;2022-12-07T13:44:24;9.23;;;3.88;;
72437;SDS011;60444;43.534;-5.674;2022-12-07T13:49:55;8.85;;;3.33;;
72437;SDS011;60444;43.534;-5.674;2022-12-07T13:52:25;10.83;;;4.43;;
72437;SDS011;60444;43.534;-5.674;2022-12-07T13:55:11;11.52;;;3.38;;
72437;SDS011;60444;43.534;-5.674;2022-12-07T13:57:40;9.75;;;3.88;;
72437;SDS011;60444;43.534;-5.674;2022-12-07T14:00:16;14.15;;;3.55;;
72437;SDS011;60444;43.534;-5.674;2022-12-07T14:05:30;12.10;;;3.70;;
72437;SDS011;60444;43.534;-5.674;2022-12-07T14:08:00;10.40;;;3.58;;
72437;SDS011;60444;43.534;-5.674;2022-12-07T14:10:29;13.80;;;3.75;;
72437;SDS011;60444;43.534;-5.674;2022-12-07T14:12:57;8.38;;;3.42;;
72437;SDS011;60444;43.534;-5.674;2022-12-07T14:15:24;15.15;;;4.25;;
72437;SDS011;60444;43.534;-5.674;2022-12-07T14:17:54;10.63;;;3.30;;
72437;SDS011;60444;43.534;-5.674;2022-12-07T14:20:37;13.20;;;4.28;;
72437;SDS011;60444;43.534;-5.674;2022-12-07T14:23:19;12.95;;;4.00;;
72437;SDS011;60444;43.534;-5.674;2022-12-07T14:25:52;10.13;;;3.75;;
72437;SDS011;60444;43.534;-5.674;2022-12-07T14:28:32;8.02;;;3.80;;
72437;SDS011;60444;43.534;-5.674;2022-12-07T14:30:59;11.00;;;3.57;;
72437;SDS011;60444;43.534;-5.674;2022-12-07T14:33:26;9.57;;;3.50;;
72437;SDS011;60444;43.534;-5.674;2022-12-07T14:35:52;11.13;;;4.32;;
72437;SDS011;60444;43.534;-5.674;2022-12-07T14:38:22;10.73;;;3.20;;
72437;SDS011;60444;43.534;-5.674;2022-12-07T14:40:49;12.40;;;3.70;;
72437;SDS011;60444;43.534;-5.674;2022-12-07T14:43:16;15.33;;;5.00;;
72437;SDS011;60444;43.534;-5.674;2022-12-07T14:45:43;15.43;;;3.72;;
72437;SDS011;60444;43.534;-5.674;2022-12-07T14:48:13;11.30;;;4.00;;
72437;SDS011;60444;43.534;-5.674;2022-12-07T14:50:49;15.88;;;4.63;;
72437;SDS011;60444;43.534;-5.674;2022-12-07T14:53:20;10.05;;;3.47;;
72437;SDS011;60444;43.534;-5.674;2022-12-07T14:55:53;11.00;;;3.50;;
72437;SDS011;60444;43.534;-5.674;2022-12-07T14:58:19;12.30;;;3.60;;
72437;SDS011;60444;43.534;-5.674;2022-12-07T15:00:45;10.37;;;4.03;;
72437;SDS011;60444;43.534;-5.674;2022-12-07T15:03:12;10.48;;;3.35;;
72437;SDS011;60444;43.534;-5.674;2022-12-07T15:05:38;16.42;;;3.60;;
72437;SDS011;60444;43.534;-5.674;2022-12-07T15:08:04;7.20;;;3.03;;
72437;SDS011;60444;43.534;-5.674;2022-12-07T15:10:31;11.60;;;3.67;;
72437;SDS011;60444;43.534;-5.674;2022-12-07T15:12:59;9.43;;;3.40;;
72437;SDS011;60444;43.534;-5.674;2022-12-07T15:15:46;9.98;;;3.03;;
72437;SDS011;60444;43.534;-5.674;2022-12-07T15:18:12;17.50;;;4.40;;
72437;SDS011;60444;43.534;-5.674;2022-12-07T15:20:37;14.13;;;3.15;;
72437;SDS011;60444;43.534;-5.674;2022-12-07T15:23:03;8.80;;;3.53;;
72437;SDS011;60444;43.534;-5.674;2022-12-07T15:25:28;10.18;;;3.60;;
72437;SDS011;60444;43.534;-5.674;2022-12-07T15:27:54;9.03;;;3.57;;
72437;SDS011;60444;43.534;-5.674;2022-12-07T15:30:19;15.53;;;3.57;;
72437;SDS011;60444;43.534;-5.674;2022-12-07T15:32:48;12.53;;;4.10;;
72437;SDS011;60444;43.534;-5.674;2022-12-07T15:35:15;14.43;;;3.58;;
72437;SDS011;60444;43.534;-5.674;2022-12-07T15:37:40;8.77;;;3.53;;
72437;SDS011;60444;43.534;-5.674;2022-12-07T15:40:06;10.87;;;3.47;;
72437;SDS011;60444;43.534;-5.674;2022-12-07T15:42:32;13.07;;;3.88;;
72437;SDS011;60444;43.534;-5.674;2022-12-07T15:44:57;16.20;;;3.60;;
72437;SDS011;60444;43.534;-5.674;2022-12-07T15:47:33;9.52;;;3.30;;
72437;SDS011;60444;43.534;-5.674;2022-12-07T15:50:02;10.20;;;3.22;;
72437;SDS011;60444;43.534;-5.674;2022-12-07T15:52:29;13.02;;;3.35;;
72437;SDS011;60444;43.534;-5.674;2022-12-07T15:54:54;11.10;;;3.20;;
72437;SDS011;60444;43.534;-5.674;2022-12-07T15:57:20;8.68;;;3.05;;
72437;SDS011;60444;43.534;-5.674;2022-12-07T15:59:46;12.30;;;3.47;;
72437;SDS011;60444;43.534;-5.674;2022-12-07T16:02:13;9.80;;;3.73;;
72437;SDS011;60444;43.534;-5.674;2022-12-07T16:04:38;10.13;;;3.50;;
72437;SDS011;60444;43.534;-5.674;2022-12-07T16:07:04;7.80;;;3.00;;
72437;SDS011;60444;43.534;-5.674;2022-12-07T16:09:30;9.38;;;3.25;;
72437;SDS011;60444;43.534;-5.674;2022-12-07T16:11:56;9.63;;;3.33;;
72437;SDS011;60444;43.534;-5.674;2022-12-07T16:14:22;11.03;;;3.70;;
72437;SDS011;60444;43.534;-5.674;2022-12-07T16:16:47;12.32;;;3.40;;
72437;SDS011;60444;43.534;-5.674;2022-12-07T16:19:13;10.50;;;3.50;;
72437;SDS011;60444;43.534;-5.674;2022-12-07T16:21:39;10.13;;;3.53;;
72437;SDS011;60444;43.534;-5.674;2022-12-07T16:24:07;10.63;;;3.65;;
72437;SDS011;60444;43.534;-5.674;2022-12-07T16:26:33;12.10;;;3.33;;
72437;SDS011;60444;43.534;-5.674;2022-12-07T16:28:59;11.20;;;3.20;;
72437;SDS011;60444;43.534;-5.674;2022-12-07T16:31:26;12.57;;;3.90;;
72437;SDS011;60444;43.534;-5.674;2022-12-07T16:33:53;8.07;;;3.10;;
72437;SDS011;60444;43.534;-5.674;2022-12-07T16:36:23;11.50;;;3.47;;
72437;SDS011;60444;43.534;-5.674;2022-12-07T16:38:50;11.10;;;3.35;;
72437;SDS011;60444;43.534;-5.674;2022-12-07T16:41:15;13.23;;;3.53;;
72437;SDS011;60444;43.534;-5.674;2022-12-07T16:43:41;11.95;;;3.58;;
72437;SDS011;60444;43.534;-5.674;2022-12-07T16:46:07;9.33;;;3.20;;
72437;SDS011;60444;43.534;-5.674;2022-12-07T16:48:36;9.38;;;3.05;;
72437;SDS011;60444;43.534;-5.674;2022-12-07T16:51:03;9.63;;;3.63;;
72437;SDS011;60444;43.534;-5.674;2022-12-07T16:53:36;8.63;;;3.17;;
72437;SDS011;60444;43.534;-5.674;2022-12-07T16:56:03;9.98;;;3.30;;
72437;SDS011;60444;43.534;-5.674;2022-12-07T16:58:30;8.15;;;3.15;;